createdAt,value
2022-09-20T00:02:11.914Z,27.52
2022-09-20T00:05:23.400Z,27.48
2022-09-20T00:08:19.446Z,27.49
2022-09-20T00:11:28.707Z,27.58
2022-09-20T00:14:55.260Z,27.48
2022-09-20T00:18:21.882Z,27.55
2022-09-20T00:21:49.384Z,27.46
2022-09-20T00:25:13.086Z,27.52
2022-09-20T00:28:40.443Z,27.77
2022-09-20T00:31:57.349Z,27.82
2022-09-20T00:35:31.912Z,27.99
2022-09-20T00:38:01.869Z,28.01
2022-09-20T00:41:29.565Z,28.13
2022-09-20T00:44:56.609Z,28.47
2022-09-20T00:48:26.152Z,28.74
2022-09-20T00:51:53.826Z,29.01
2022-09-20T00:55:03.402Z,28.92
2022-09-20T00:58:30.098Z,29.36
2022-09-20T01:01:39.273Z,29.55
2022-09-20T01:04:57.166Z,29.75
2022-09-20T01:08:05.940Z,30.12
2022-09-20T01:11:33.344Z,30.38
2022-09-20T01:14:50.374Z,30.04
2022-09-20T01:18:16.808Z,30.34
2022-09-20T01:21:44.223Z,30.55
2022-09-20T01:25:10.944Z,30.79
2022-09-20T01:28:42.327Z,30.94
2022-09-20T01:32:13.028Z,31.27
2022-09-20T01:35:29.141Z,30.90
2022-09-20T01:39:04.391Z,31.56
2022-09-20T01:42:31.931Z,32.15
2022-09-20T01:46:17.066Z,32.55
2022-09-20T01:50:00.158Z,32.45
2022-09-20T01:52:54.159Z,32.29
2022-09-20T01:56:29.964Z,32.18
2022-09-20T01:59:45.450Z,32.10
2022-09-20T02:03:14.608Z,32.21
2022-09-20T02:06:33.624Z,32.57
2022-09-20T02:10:11.724Z,32.70
2022-09-20T02:13:53.751Z,32.84
2022-09-20T02:17:10.763Z,33.09
2022-09-20T02:20:40.708Z,33.11
2022-09-20T02:24:17.839Z,33.20
2022-09-20T02:27:55.165Z,33.39
2022-09-20T02:31:27.735Z,33.45
2022-09-20T02:34:52.324Z,33.78
2022-09-20T02:38:23.900Z,33.98
2022-09-20T02:41:49.159Z,34.25
2022-09-20T02:45:35.227Z,35.52
2022-09-20T02:48:46.615Z,36.05
2022-09-20T02:52:36.319Z,36.29
2022-09-20T02:56:14.303Z,36.05
2022-09-20T02:59:47.383Z,36.11
2022-09-20T03:03:06.561Z,36.08
2022-09-20T03:06:43.017Z,36.32
2022-09-20T03:10:26.383Z,36.24
2022-09-20T03:14:00.820Z,36.58
2022-09-20T03:17:28.850Z,36.85
2022-09-20T03:21:07.836Z,37.03
2022-09-20T03:24:45.044Z,37.18
2022-09-20T03:28:07.552Z,37.03
2022-09-20T03:31:46.269Z,37.26
2022-09-20T03:35:12.032Z,37.50
2022-09-20T03:38:47.745Z,37.65
2022-09-20T03:42:10.998Z,37.76
2022-09-20T03:45:31.907Z,37.83
2022-09-20T03:49:07.357Z,38.09
2022-09-20T03:52:43.167Z,38.17
2022-09-20T03:56:22.905Z,38.41
2022-09-20T04:00:01.321Z,38.72
2022-09-20T04:04:04.915Z,38.86
2022-09-20T04:07:47.265Z,39.00
2022-09-20T04:11:32.852Z,38.97
2022-09-20T04:14:56.445Z,39.21
2022-09-20T04:18:26.102Z,39.33
2022-09-20T04:22:02.611Z,39.50
2022-09-20T04:25:35.701Z,39.84
2022-09-20T04:28:45.320Z,39.93
2022-09-20T04:32:05.696Z,40.03
2022-09-20T04:35:32.296Z,40.23
2022-09-20T04:39:00.374Z,40.35
2022-09-20T04:42:24.648Z,40.51
2022-09-20T04:46:22.290Z,40.72
2022-09-20T04:49:47.355Z,40.81
2022-09-20T04:53:17.148Z,41.94
2022-09-20T04:56:34.051Z,42.84
2022-09-20T05:00:10.336Z,43.20
2022-09-20T05:03:32.466Z,43.40
2022-09-20T05:07:07.693Z,43.71
2022-09-20T05:10:31.626Z,43.93
2022-09-20T05:14:08.376Z,44.35
2022-09-20T05:17:42.921Z,45.08
2022-09-20T05:21:15.608Z,45.33
2022-09-20T05:25:04.673Z,45.57
2022-09-20T05:28:30.594Z,45.89
2022-09-20T05:32:04.754Z,46.03
2022-09-20T05:35:31.219Z,45.90
2022-09-20T05:39:25.545Z,46.11
2022-09-20T05:42:54.468Z,46.05
2022-09-20T05:46:27.588Z,46.18
2022-09-20T05:49:41.281Z,46.25
2022-09-20T05:53:11.586Z,46.42
2022-09-20T05:57:04.747Z,46.60
2022-09-20T06:00:41.894Z,46.39
2022-09-20T06:04:15.451Z,46.62
2022-09-20T06:07:25.858Z,46.70
2022-09-20T06:10:52.624Z,46.77
2022-09-20T06:14:41.864Z,46.94
2022-09-20T06:18:42.092Z,47.17
2022-09-20T06:22:17.374Z,47.25
2022-09-20T06:25:50.589Z,47.37
2022-09-20T06:29:10.983Z,47.38
2022-09-20T06:32:38.681Z,47.54
2022-09-20T06:35:58.903Z,47.63
2022-09-20T06:39:31.119Z,47.82
2022-09-20T06:42:50.867Z,47.98
2022-09-20T06:46:18.608Z,48.08
2022-09-20T06:49:39.359Z,48.17
2022-09-20T06:53:11.469Z,48.42
2022-09-20T06:56:39.046Z,48.63
2022-09-20T07:00:06.449Z,48.79
2022-09-20T07:03:33.115Z,48.98
2022-09-20T07:06:59.972Z,49.14
2022-09-20T07:10:06.937Z,49.28
2022-09-20T07:13:33.912Z,49.38
2022-09-20T07:17:03.712Z,49.55
2022-09-20T07:20:23.884Z,49.70
2022-09-20T07:23:55.371Z,49.87
2022-09-20T07:27:21.998Z,50.14
2022-09-20T07:30:48.802Z,50.11
2022-09-20T07:33:59.875Z,50.28
2022-09-20T07:37:19.815Z,50.35
2022-09-20T07:40:50.023Z,50.39
2022-09-20T07:44:16.665Z,50.41
2022-09-20T07:47:44.421Z,50.53
2022-09-20T07:50:51.848Z,50.78
2022-09-20T07:54:17.955Z,50.96
2022-09-20T07:57:15.778Z,51.00
2022-09-20T08:00:25.328Z,51.13
2022-09-20T08:03:35.761Z,51.29
2022-09-20T08:07:04.043Z,51.37
2022-09-20T08:10:30.909Z,51.54
2022-09-20T08:14:12.834Z,51.56
2022-09-20T08:17:21.237Z,51.66
2022-09-20T08:20:48.027Z,51.71
2022-09-20T08:24:20.866Z,51.88
2022-09-20T08:27:47.746Z,52.14
2022-09-20T08:31:04.515Z,52.26
2022-09-20T08:34:31.417Z,52.42
2022-09-20T08:37:48.923Z,52.64
2022-09-20T08:41:16.071Z,52.77
2022-09-20T08:44:57.521Z,52.81
2022-09-20T08:48:24.993Z,52.98
2022-09-20T08:51:32.409Z,53.15
2022-09-20T08:54:35.499Z,53.21
2022-09-20T08:58:09.034Z,53.41
2022-09-20T09:01:18.847Z,53.49
2022-09-20T09:04:47.420Z,53.44
2022-09-20T09:07:51.769Z,53.62
2022-09-20T09:11:18.526Z,53.76
2022-09-20T09:15:18.175Z,53.79
2022-09-20T09:18:31.794Z,53.81
2022-09-20T09:21:55.325Z,54.03
2022-09-20T09:25:13.542Z,54.15
2022-09-20T09:28:56.758Z,54.30
2022-09-20T09:32:15.599Z,54.51
2022-09-20T09:35:42.786Z,54.76
2022-09-20T09:39:19.187Z,54.82
2022-09-20T09:43:02.240Z,54.94
2022-09-20T09:46:34.769Z,55.05
2022-09-20T09:49:21.502Z,55.29
2022-09-20T09:52:56.688Z,55.48
2022-09-20T09:56:23.470Z,55.64
2022-09-20T09:59:34.128Z,55.74
2022-09-20T10:03:19.979Z,55.85
2022-09-20T10:06:54.203Z,55.96
2022-09-20T10:10:33.783Z,56.01
2022-09-20T10:14:14.445Z,56.10
2022-09-20T10:17:48.509Z,56.17
2022-09-20T10:21:15.814Z,56.23
2022-09-20T10:24:54.595Z,56.34
2022-09-20T10:28:19.269Z,56.44
2022-09-20T10:31:54.861Z,56.44
2022-09-20T10:35:43.318Z,56.41
2022-09-20T10:38:36.967Z,56.74
2022-09-20T10:42:17.907Z,56.78
2022-09-20T10:49:27.389Z,57.05
2022-09-20T10:52:49.641Z,57.16
2022-09-20T10:56:38.273Z,57.19
2022-09-20T11:00:30.299Z,57.19
2022-09-20T11:04:30.850Z,57.24
2022-09-20T11:08:20.919Z,57.45
2022-09-20T11:11:37.529Z,57.60
2022-09-20T11:14:55.441Z,57.73
2022-09-20T11:18:11.718Z,57.68
2022-09-20T11:21:44.609Z,57.76
2022-09-20T11:25:14.843Z,57.88
2022-09-20T11:28:45.167Z,57.97
2022-09-20T11:32:24.979Z,58.20
2022-09-20T11:35:54.837Z,58.25
2022-09-20T11:39:24.959Z,58.37
2022-09-20T11:42:26.096Z,58.53
2022-09-20T11:45:52.752Z,58.39
2022-09-20T11:49:20.398Z,58.58
2022-09-20T11:53:02.096Z,58.81
2022-09-20T11:56:31.686Z,58.82
2022-09-20T11:59:58.963Z,58.82
2022-09-20T12:03:26.167Z,58.92
2022-09-20T12:07:09.778Z,58.99
2022-09-20T12:10:32.938Z,59.06
2022-09-20T12:13:59.697Z,59.15
2022-09-20T12:17:24.522Z,59.31
2022-09-20T12:20:40.932Z,59.44
2022-09-20T12:24:21.668Z,59.32
2022-09-20T12:28:06.898Z,59.35
2022-09-20T12:31:33.778Z,59.50
2022-09-20T12:34:57.296Z,59.63
2022-09-20T12:38:27.144Z,59.59
2022-09-20T12:42:08.859Z,59.70
2022-09-20T12:45:41.296Z,59.65
2022-09-20T12:49:10.141Z,59.67
2022-09-20T12:52:35.439Z,59.67
2022-09-20T12:55:55.028Z,59.51
2022-09-20T12:59:22.371Z,59.46
2022-09-20T13:02:23.487Z,59.48
2022-09-20T13:05:43.647Z,59.21
2022-09-20T13:09:16.827Z,59.21
2022-09-20T13:12:43.577Z,59.15
2022-09-20T13:15:37.795Z,59.29
2022-09-20T13:18:57.157Z,59.25
2022-09-20T13:22:24.126Z,59.27
2022-09-20T13:25:54.241Z,59.31
2022-09-20T13:29:33.337Z,59.40
2022-09-20T13:33:02.922Z,59.43
2022-09-20T13:36:21.590Z,59.43
2022-09-20T13:39:52.410Z,59.47
2022-09-20T13:43:24.057Z,59.46
2022-09-20T13:46:40.792Z,59.76
2022-09-20T13:50:17.254Z,59.97
2022-09-20T13:53:47.501Z,59.89
2022-09-20T13:57:14.474Z,59.92
2022-09-20T14:00:33.481Z,60.00
2022-09-20T14:04:02.684Z,60.16
2022-09-20T14:07:31.519Z,60.30
2022-09-20T14:11:08.193Z,60.40
2022-09-20T14:14:27.022Z,60.34
2022-09-20T14:17:47.548Z,60.34
2022-09-20T14:21:15.267Z,60.46
2022-09-20T14:25:06.861Z,60.92
2022-09-20T14:28:33.097Z,60.94
2022-09-20T14:32:00.999Z,59.70
2022-09-20T14:35:28.440Z,58.34
2022-09-20T14:38:57.334Z,56.75
2022-09-20T14:42:18.729Z,55.24
2022-09-20T14:45:23.438Z,54.07
2022-09-20T14:48:46.749Z,52.58
2022-09-20T14:52:14.400Z,51.16
2022-09-20T14:55:41.275Z,50.02
2022-09-20T14:59:07.183Z,48.82
2022-09-20T15:02:37.463Z,47.61
2022-09-20T15:05:45.584Z,46.71
2022-09-20T15:09:12.602Z,45.98
2022-09-20T15:12:19.294Z,45.21
2022-09-20T15:15:46.360Z,44.40
2022-09-20T15:19:17.455Z,43.41
2022-09-20T15:22:44.126Z,42.50
2022-09-20T15:26:10.860Z,42.11
2022-09-20T15:29:30.211Z,41.82
2022-09-20T15:32:49.607Z,41.59
2022-09-20T15:36:17.735Z,41.08
2022-09-20T15:39:45.782Z,40.70
2022-09-20T15:43:13.910Z,40.35
2022-09-20T15:46:22.310Z,39.60
2022-09-20T15:49:52.254Z,38.83
2022-09-20T15:53:07.743Z,38.40
2022-09-20T15:56:34.529Z,38.10
2022-09-20T15:59:52.193Z,37.84
2022-09-20T16:03:14.501Z,37.43
2022-09-20T16:06:41.126Z,37.29
2022-09-20T16:09:46.339Z,36.86
2022-09-20T16:13:13.265Z,36.64
2022-09-20T16:16:43.616Z,36.37
2022-09-20T16:20:13.795Z,36.34
2022-09-20T16:23:34.020Z,35.93
2022-09-20T16:27:01.692Z,35.99
2022-09-20T16:30:19.291Z,36.06
2022-09-20T16:33:55.237Z,35.75
2022-09-20T16:37:11.165Z,35.67
2022-09-20T16:40:38.258Z,35.59
2022-09-20T16:43:51.236Z,35.70
2022-09-20T16:47:18.204Z,35.60
2022-09-20T16:50:14.018Z,35.19
2022-09-20T16:53:44.261Z,35.01
2022-09-20T16:57:04.331Z,34.69
2022-09-20T17:00:15.912Z,34.43
2022-09-20T17:03:44.715Z,34.30
2022-09-20T17:06:47.568Z,34.01
2022-09-20T17:10:04.983Z,34.13
2022-09-20T17:13:32.300Z,33.77
2022-09-20T17:17:10.912Z,33.83
2022-09-20T17:20:38.391Z,33.18
2022-09-20T17:24:00.396Z,33.18
2022-09-20T17:27:22.232Z,32.80
2022-09-20T17:30:30.585Z,32.19
2022-09-20T17:33:56.961Z,32.00
2022-09-20T17:37:23.752Z,31.80
2022-09-20T17:40:33.520Z,31.24
2022-09-20T17:44:01.072Z,30.99
2022-09-20T17:47:27.671Z,30.61
2022-09-20T17:50:40.558Z,30.33
2022-09-20T17:54:07.007Z,30.20
2022-09-20T17:57:35.039Z,30.06
2022-09-20T18:00:51.694Z,29.87
2022-09-20T18:04:12.174Z,29.60
2022-09-20T18:07:35.534Z,29.43
2022-09-20T18:10:57.369Z,28.85
2022-09-20T18:14:24.931Z,28.82
2022-09-20T18:17:54.588Z,28.27
2022-09-20T18:21:21.269Z,28.37
2022-09-20T18:24:41.993Z,28.37
2022-09-20T18:28:11.149Z,28.34
2022-09-20T18:31:44.104Z,27.99
2022-09-20T18:35:01.632Z,28.04
2022-09-20T18:38:03.452Z,27.52
2022-09-20T18:41:38.669Z,27.23
2022-09-20T18:44:56.117Z,27.05
2022-09-20T18:48:13.081Z,27.03
2022-09-20T18:51:39.173Z,26.84
2022-09-20T18:54:53.498Z,26.67
2022-09-20T18:58:20.316Z,26.16
2022-09-20T19:01:41.120Z,25.35
2022-09-20T19:05:19.847Z,24.46
2022-09-20T19:08:22.248Z,24.41
2022-09-20T19:11:51.241Z,23.93
2022-09-20T19:15:20.154Z,24.25
2022-09-20T19:18:33.782Z,23.29
2022-09-20T19:22:15.706Z,23.02
2022-09-20T19:25:55.027Z,22.90
2022-09-20T19:29:14.757Z,21.99
2022-09-20T19:32:41.647Z,21.46
2022-09-20T19:36:07.370Z,21.70
2022-09-20T19:39:36.918Z,21.51
2022-09-20T19:43:21.689Z,21.84
2022-09-20T19:47:01.866Z,21.29
2022-09-20T19:50:29.206Z,19.71
2022-09-20T19:53:46.709Z,19.39
2022-09-20T19:57:18.249Z,19.07
2022-09-20T20:00:24.454Z,18.81
2022-09-20T20:03:52.484Z,18.22
2022-09-20T20:07:26.116Z,18.28
2022-09-20T20:10:54.638Z,19.00
2022-09-20T20:14:40.163Z,19.04
2022-09-20T20:18:12.244Z,18.11
2022-09-20T20:21:41.277Z,17.95
2022-09-20T20:25:17.260Z,17.12
2022-09-20T20:28:43.266Z,17.95
2022-09-20T20:31:56.216Z,17.79
2022-09-20T20:35:13.198Z,18.36
2022-09-20T20:38:43.079Z,18.17
2022-09-20T20:42:03.963Z,18.28
2022-09-20T20:45:19.968Z,18.29
2022-09-20T20:48:48.525Z,17.83
2022-09-20T20:52:16.529Z,17.97
2022-09-20T20:55:43.624Z,17.86
2022-09-20T20:58:56.917Z,17.97
2022-09-20T21:01:37.042Z,17.77
2022-09-20T21:04:38.564Z,16.94
2022-09-20T21:07:55.330Z,17.34
2022-09-20T21:11:02.808Z,17.56
2022-09-20T21:14:30.373Z,17.55
2022-09-20T21:17:58.168Z,17.55
2022-09-20T21:21:24.930Z,17.37
2022-09-20T21:24:44.680Z,17.00
2022-09-20T21:27:54.728Z,17.10
2022-09-20T21:31:20.269Z,16.71
2022-09-20T21:34:47.639Z,17.08
2022-09-20T21:38:07.582Z,16.95
2022-09-20T21:41:35.198Z,16.73
2022-09-20T21:44:51.879Z,17.12
2022-09-20T21:48:18.834Z,16.83
2022-09-20T21:51:46.635Z,16.75
2022-09-20T21:55:13.385Z,17.25
2022-09-20T21:58:21.387Z,16.92
2022-09-20T22:01:48.429Z,16.68
2022-09-20T22:05:15.982Z,17.23
2022-09-20T22:08:26.917Z,17.57
2022-09-20T22:11:59.461Z,17.48
2022-09-20T22:15:18.830Z,17.32
2022-09-20T22:18:45.598Z,17.34
2022-09-20T22:22:17.871Z,17.30
2022-09-20T22:25:24.301Z,17.54
2022-09-20T22:28:53.046Z,17.60
2022-09-20T22:32:15.925Z,17.80
2022-09-20T22:35:32.472Z,17.67
2022-09-20T22:38:49.358Z,17.43
2022-09-20T22:41:49.106Z,17.30
2022-09-20T22:45:13.058Z,17.61
2022-09-20T22:48:25.627Z,17.41
2022-09-20T22:51:33.695Z,17.19
2022-09-20T22:54:34.773Z,17.19
2022-09-20T22:57:46.133Z,17.29
2022-09-20T23:01:05.342Z,17.32
2022-09-20T23:04:24.780Z,17.53
2022-09-20T23:07:44.674Z,17.63
2022-09-20T23:10:44.396Z,17.80
2022-09-20T23:14:03.936Z,17.90
2022-09-20T23:17:20.583Z,18.35
2022-09-20T23:20:27.132Z,18.28
2022-09-20T23:23:04.565Z,18.30
2022-09-20T23:26:31.900Z,17.91
2022-09-20T23:29:48.532Z,18.16
2022-09-20T23:32:55.120Z,18.02
2022-09-20T23:36:11.312Z,18.10
2022-09-20T23:39:28.532Z,18.11
2022-09-20T23:42:46.549Z,18.50
2022-09-20T23:46:17.070Z,18.43
2022-09-20T23:49:19.652Z,18.54
2022-09-20T23:52:47.641Z,18.45
2022-09-20T23:56:15.800Z,18.66
2022-09-20T23:59:43.320Z,18.56
